createdAt,value
2022-09-20T00:01:12.164Z,0.77
2022-09-20T00:03:43.760Z,0.45
2022-09-20T00:06:13.495Z,0.60
2022-09-20T00:08:40.840Z,0.40
2022-09-20T00:11:15.752Z,0.70
2022-09-20T00:13:45.116Z,0.47
2022-09-20T00:16:15.844Z,0.50
2022-09-20T00:18:43.564Z,0.30
2022-09-20T00:21:18.433Z,0.40
2022-09-20T00:23:45.749Z,0.35
2022-09-20T00:26:14.037Z,0.50
2022-09-20T00:28:42.274Z,0.77
2022-09-20T00:31:10.877Z,0.43
2022-09-20T00:34:16.220Z,0.60
2022-09-20T00:36:43.723Z,0.30
2022-09-20T00:39:13.158Z,0.30
2022-09-20T00:41:40.036Z,0.45
2022-09-20T00:44:42.953Z,0.20
2022-09-20T00:47:34.507Z,0.20
2022-09-20T00:50:20.756Z,0.40
2022-09-20T00:52:52.220Z,0.10
2022-09-20T00:55:20.377Z,0.43
2022-09-20T00:57:48.506Z,0.40
2022-09-20T01:00:16.143Z,0.50
2022-09-20T01:02:48.540Z,0.28
2022-09-20T01:05:17.716Z,0.20
2022-09-20T01:07:46.135Z,0.43
2022-09-20T01:10:13.149Z,0.25
2022-09-20T01:12:40.805Z,0.40
2022-09-20T01:15:09.295Z,0.38
2022-09-20T01:17:39.265Z,0.50
2022-09-20T01:20:32.329Z,0.40
2022-09-20T01:22:59.226Z,0.90
2022-09-20T01:26:03.162Z,0.32
2022-09-20T01:28:30.572Z,0.50
2022-09-20T01:31:17.782Z,0.57
2022-09-20T01:33:48.448Z,0.60
2022-09-20T01:36:24.243Z,0.50
2022-09-20T01:39:03.589Z,0.63
2022-09-20T01:41:36.898Z,0.47
2022-09-20T01:44:46.339Z,0.60
2022-09-20T01:47:33.005Z,0.70
2022-09-20T01:50:12.131Z,0.98
2022-09-20T01:53:03.126Z,1.00
2022-09-20T01:55:39.164Z,0.60
2022-09-20T01:58:22.796Z,0.68
2022-09-20T02:01:27.330Z,0.85
2022-09-20T02:04:16.068Z,0.55
2022-09-20T02:06:46.496Z,0.40
2022-09-20T02:09:16.185Z,0.40
2022-09-20T02:11:45.820Z,0.50
2022-09-20T02:14:40.556Z,0.38
2022-09-20T02:17:21.472Z,0.50
2022-09-20T02:20:13.582Z,0.55
2022-09-20T02:23:07.848Z,0.57
2022-09-20T02:25:40.497Z,0.50
2022-09-20T02:28:24.024Z,0.47
2022-09-20T02:30:59.784Z,0.60
2022-09-20T02:33:47.332Z,0.30
2022-09-20T02:36:22.556Z,0.47
2022-09-20T02:38:58.408Z,0.40
2022-09-20T02:42:20.720Z,0.30
2022-09-20T02:44:58.287Z,0.50
2022-09-20T02:47:42.605Z,0.43
2022-09-20T02:50:21.543Z,0.40
2022-09-20T02:53:25.768Z,0.60
2022-09-20T02:56:15.283Z,0.40
2022-09-20T02:59:12.876Z,0.50
2022-09-20T03:02:15.728Z,0.45
2022-09-20T03:04:45.642Z,0.57
2022-09-20T03:07:47.470Z,0.40
2022-09-20T03:10:26.673Z,0.50
2022-09-20T03:13:22.904Z,0.52
2022-09-20T03:16:16.505Z,0.60
2022-09-20T03:19:12.113Z,0.50
2022-09-20T03:21:49.387Z,0.43
2022-09-20T03:24:34.988Z,0.50
2022-09-20T03:27:21.171Z,0.47
2022-09-20T03:30:03.128Z,0.38
2022-09-20T03:32:55.220Z,0.47
2022-09-20T03:35:49.148Z,0.40
2022-09-20T03:38:52.689Z,0.40
2022-09-20T03:41:29.014Z,0.50
2022-09-20T03:46:28.479Z,0.50
2022-09-20T03:49:10.683Z,0.60
2022-09-20T03:51:55.680Z,0.40
2022-09-20T03:54:52.639Z,0.40
2022-09-20T03:57:34.703Z,0.40
2022-09-20T04:00:13.305Z,0.50
2022-09-20T04:02:46.282Z,0.40
2022-09-20T04:05:18.433Z,0.50
2022-09-20T04:07:48.198Z,0.50
2022-09-20T04:10:36.585Z,0.50
2022-09-20T04:13:22.348Z,0.68
2022-09-20T04:16:13.786Z,0.50
2022-09-20T04:18:50.054Z,0.30
2022-09-20T04:21:24.892Z,0.52
2022-09-20T04:24:05.195Z,0.40
2022-09-20T04:26:39.596Z,0.47
2022-09-20T04:29:36.662Z,0.70
2022-09-20T04:32:16.415Z,0.60
2022-09-20T04:35:35.081Z,0.55
2022-09-20T04:38:08.113Z,0.63
2022-09-20T04:40:44.457Z,0.70
2022-09-20T04:43:41.763Z,0.57
2022-09-20T04:46:46.050Z,0.40
2022-09-20T04:49:32.405Z,0.63
2022-09-20T04:52:00.830Z,0.43
2022-09-20T04:54:36.267Z,0.50
2022-09-20T04:57:27.088Z,0.50
2022-09-20T05:00:09.390Z,0.52
2022-09-20T05:03:11.222Z,0.50
2022-09-20T05:06:08.536Z,0.30
2022-09-20T05:11:35.836Z,0.40
2022-09-20T05:14:24.882Z,0.47
2022-09-20T05:17:14.907Z,0.60
2022-09-20T05:20:22.336Z,0.60
2022-09-20T05:23:14.465Z,0.60
2022-09-20T05:26:08.439Z,0.63
2022-09-20T05:29:25.394Z,0.50
2022-09-20T05:32:06.708Z,0.60
2022-09-20T05:34:45.216Z,0.70
2022-09-20T05:37:46.716Z,0.40
2022-09-20T05:40:22.732Z,0.40
2022-09-20T05:43:00.661Z,0.40
2022-09-20T05:45:33.199Z,0.63
2022-09-20T05:48:14.461Z,0.60
2022-09-20T05:51:20.238Z,0.57
2022-09-20T05:54:05.824Z,0.40
2022-09-20T05:56:53.008Z,0.38
2022-09-20T05:59:31.007Z,0.88
2022-09-20T06:02:23.302Z,0.60
2022-09-20T06:05:17.144Z,0.77
2022-09-20T06:08:13.138Z,0.75
2022-09-20T06:11:13.877Z,1.40
2022-09-20T06:13:52.699Z,0.73
2022-09-20T06:16:35.444Z,0.73
2022-09-20T06:19:07.403Z,0.80
2022-09-20T06:21:52.409Z,0.90
2022-09-20T06:24:31.448Z,0.60
2022-09-20T06:27:03.233Z,1.27
2022-09-20T06:29:35.964Z,0.93
2022-09-20T06:32:02.932Z,0.52
2022-09-20T06:34:30.531Z,0.75
2022-09-20T06:37:39.549Z,0.75
2022-09-20T06:40:57.165Z,0.63
2022-09-20T06:43:24.272Z,0.80
2022-09-20T06:45:52.992Z,0.65
2022-09-20T06:48:20.170Z,0.52
2022-09-20T06:50:47.141Z,0.70
2022-09-20T06:53:18.006Z,0.55
2022-09-20T06:55:46.060Z,0.85
2022-09-20T06:58:13.087Z,0.73
2022-09-20T07:00:40.056Z,0.68
2022-09-20T07:03:07.683Z,0.60
2022-09-20T07:05:35.937Z,0.50
2022-09-20T07:08:03.016Z,0.70
2022-09-20T07:10:30.181Z,0.60
2022-09-20T07:13:01.911Z,0.50
2022-09-20T07:15:31.118Z,1.40
2022-09-20T07:17:58.699Z,0.60
2022-09-20T07:20:26.029Z,0.90
2022-09-20T07:22:53.770Z,0.85
2022-09-20T07:25:21.706Z,0.68
2022-09-20T07:27:50.756Z,0.73
2022-09-20T07:30:19.763Z,0.65
2022-09-20T07:32:46.784Z,0.70
2022-09-20T07:35:13.835Z,1.92
2022-09-20T07:37:41.450Z,0.70
2022-09-20T07:40:10.903Z,0.60
2022-09-20T07:42:38.122Z,0.80
2022-09-20T07:45:05.528Z,0.70
2022-09-20T07:47:35.355Z,0.68
2022-09-20T07:50:03.708Z,0.40
2022-09-20T07:52:30.694Z,0.73
2022-09-20T07:54:57.666Z,0.63
2022-09-20T07:57:24.596Z,0.50
2022-09-20T07:59:51.774Z,0.40
2022-09-20T08:02:18.685Z,0.50
2022-09-20T08:04:45.638Z,0.40
2022-09-20T08:07:12.831Z,0.52
2022-09-20T08:09:39.835Z,0.40
2022-09-20T08:14:55.921Z,0.70
2022-09-20T08:17:22.874Z,0.52
2022-09-20T08:19:52.978Z,0.52
2022-09-20T08:22:20.401Z,0.60
2022-09-20T08:24:47.373Z,0.60
2022-09-20T08:27:14.370Z,0.60
2022-09-20T08:29:41.500Z,0.70
2022-09-20T08:32:08.518Z,0.60
2022-09-20T08:34:35.531Z,0.50
2022-09-20T08:37:02.547Z,0.65
2022-09-20T08:42:33.864Z,0.40
2022-09-20T08:45:05.471Z,0.50
2022-09-20T08:47:40.105Z,0.50
2022-09-20T08:50:11.753Z,0.82
2022-09-20T08:52:40.727Z,0.80
2022-09-20T08:55:19.525Z,0.60
2022-09-20T08:58:10.924Z,0.50
2022-09-20T09:00:39.624Z,1.45
2022-09-20T09:03:12.437Z,0.60
2022-09-20T09:05:50.773Z,0.65
2022-09-20T09:08:19.218Z,1.00
2022-09-20T09:10:56.456Z,0.60
2022-09-20T09:13:42.372Z,0.65
2022-09-20T09:16:15.631Z,0.70
2022-09-20T09:18:51.877Z,0.50
2022-09-20T09:21:25.445Z,0.47
2022-09-20T09:24:04.792Z,0.60
2022-09-20T09:26:40.215Z,0.63
2022-09-20T09:29:20.966Z,0.67
2022-09-20T09:31:50.641Z,0.50
2022-09-20T09:34:38.802Z,0.40
2022-09-20T09:37:05.861Z,0.70
2022-09-20T09:39:40.628Z,0.63
2022-09-20T09:42:34.126Z,0.50
2022-09-20T09:45:28.285Z,0.63
2022-09-20T09:47:56.978Z,0.50
2022-09-20T09:50:33.839Z,0.40
2022-09-20T09:53:31.931Z,0.50
2022-09-20T09:56:40.476Z,0.40
2022-09-20T10:00:03.075Z,0.82
2022-09-20T10:03:15.092Z,1.55
2022-09-20T10:06:01.891Z,1.95
2022-09-20T10:11:32.083Z,1.10
2022-09-20T10:14:19.399Z,1.10
2022-09-20T10:17:04.917Z,1.25
2022-09-20T10:19:53.025Z,1.00
2022-09-20T10:22:41.583Z,0.80
2022-09-20T10:25:48.465Z,0.80
2022-09-20T10:28:22.746Z,0.70
2022-09-20T10:30:58.495Z,0.50
2022-09-20T10:34:14.234Z,0.63
2022-09-20T10:36:56.589Z,1.00
2022-09-20T10:39:36.476Z,0.77
2022-09-20T10:42:30.868Z,0.70
2022-09-20T10:45:29.831Z,0.52
2022-09-20T10:48:30.752Z,0.40
2022-09-20T10:51:27.299Z,0.40
2022-09-20T10:54:14.204Z,0.57
2022-09-20T10:59:32.699Z,0.45
2022-09-20T11:02:16.882Z,0.47
2022-09-20T11:05:05.471Z,0.50
2022-09-20T11:08:10.169Z,0.65
2022-09-20T11:11:05.549Z,0.60
2022-09-20T11:13:53.952Z,0.60
2022-09-20T11:16:23.870Z,0.73
2022-09-20T11:18:59.288Z,1.15
2022-09-20T11:21:33.334Z,0.60
2022-09-20T11:24:13.752Z,0.68
2022-09-20T11:26:50.151Z,0.60
2022-09-20T11:29:54.702Z,0.80
2022-09-20T11:32:34.700Z,0.70
2022-09-20T11:35:29.346Z,0.70
2022-09-20T11:38:34.919Z,0.30
2022-09-20T11:41:08.639Z,0.50
2022-09-20T11:43:40.629Z,0.68
2022-09-20T11:46:10.911Z,0.70
2022-09-20T11:48:53.338Z,0.60
2022-09-20T11:51:41.118Z,0.52
2022-09-20T11:54:20.046Z,0.60
2022-09-20T11:56:53.026Z,0.50
2022-09-20T11:59:40.465Z,0.50
2022-09-20T12:02:35.617Z,0.60
2022-09-20T12:05:05.864Z,0.60
2022-09-20T12:07:39.797Z,0.52
2022-09-20T12:10:30.688Z,0.50
2022-09-20T12:13:03.040Z,0.40
2022-09-20T12:15:42.196Z,0.50
2022-09-20T12:18:27.223Z,0.50
2022-09-20T12:20:58.255Z,0.50
2022-09-20T12:23:40.667Z,0.70
2022-09-20T12:26:13.318Z,0.40
2022-09-20T12:28:45.696Z,0.47
2022-09-20T12:31:34.340Z,0.68
2022-09-20T12:34:14.696Z,0.93
2022-09-20T12:36:53.651Z,0.50
2022-09-20T12:39:30.245Z,0.70
2022-09-20T12:42:12.421Z,0.73
2022-09-20T12:44:51.831Z,0.82
2022-09-20T12:47:28.876Z,0.80
2022-09-20T12:50:18.968Z,0.73
2022-09-20T12:52:58.290Z,0.82
2022-09-20T12:55:31.093Z,0.90
2022-09-20T12:58:03.860Z,0.80
2022-09-20T13:00:39.665Z,0.70
2022-09-20T13:05:46.019Z,0.68
2022-09-20T13:08:15.788Z,0.80
2022-09-20T13:10:57.820Z,0.80
2022-09-20T13:13:32.089Z,0.77
2022-09-20T13:16:01.333Z,0.60
2022-09-20T13:18:29.542Z,0.93
2022-09-20T13:20:57.851Z,1.17
2022-09-20T13:23:29.007Z,0.73
2022-09-20T13:26:02.302Z,0.80
2022-09-20T13:28:37.519Z,0.70
2022-09-20T13:31:24.480Z,0.77
2022-09-20T13:33:51.851Z,0.98
2022-09-20T13:36:27.312Z,0.90
2022-09-20T13:38:56.860Z,1.30
2022-09-20T13:41:29.298Z,1.08
2022-09-20T13:43:57.328Z,0.80
2022-09-20T13:46:30.556Z,1.00
2022-09-20T13:49:14.928Z,1.10
2022-09-20T13:51:42.061Z,1.15
2022-09-20T13:54:31.203Z,1.35
2022-09-20T13:57:11.161Z,1.20
2022-09-20T13:59:44.990Z,0.82
2022-09-20T14:02:41.853Z,1.08
2022-09-20T14:05:17.035Z,0.85
2022-09-20T14:07:46.628Z,1.20
2022-09-20T14:10:35.924Z,0.80
2022-09-20T14:13:07.019Z,0.93
2022-09-20T14:15:39.271Z,0.90
2022-09-20T14:18:09.209Z,1.00
2022-09-20T14:20:36.240Z,1.23
2022-09-20T14:23:04.144Z,1.20
2022-09-20T14:25:31.251Z,1.35
2022-09-20T14:28:20.280Z,1.55
2022-09-20T14:30:48.547Z,2.20
2022-09-20T14:33:19.644Z,1.50
2022-09-20T14:35:51.542Z,1.35
2022-09-20T14:38:24.264Z,1.63
2022-09-20T14:40:52.000Z,1.50
2022-09-20T14:43:33.953Z,1.63
2022-09-20T14:46:04.891Z,1.70
2022-09-20T14:48:41.368Z,1.05
2022-09-20T14:51:28.886Z,1.50
2022-09-20T14:54:04.623Z,1.30
2022-09-20T14:56:36.342Z,1.65
2022-09-20T14:59:14.007Z,1.50
2022-09-20T15:01:45.103Z,1.50
2022-09-20T15:04:26.943Z,1.60
2022-09-20T15:06:55.448Z,1.85
2022-09-20T15:09:22.792Z,1.98
2022-09-20T15:12:21.551Z,1.83
2022-09-20T15:14:49.191Z,1.42
2022-09-20T15:17:18.629Z,1.70
2022-09-20T15:19:46.712Z,1.48
2022-09-20T15:22:14.201Z,1.00
2022-09-20T15:24:41.863Z,1.10
2022-09-20T15:27:11.252Z,0.93
2022-09-20T15:29:38.190Z,1.52
2022-09-20T15:32:05.995Z,1.55
2022-09-20T15:34:33.207Z,1.52
2022-09-20T15:37:00.172Z,1.23
2022-09-20T15:39:28.077Z,1.80
2022-09-20T15:41:55.068Z,1.20
2022-09-20T15:44:22.122Z,1.60
2022-09-20T15:46:51.177Z,1.35
2022-09-20T15:49:18.150Z,1.30
2022-09-20T15:51:46.384Z,1.38
2022-09-20T15:54:14.384Z,1.20
2022-09-20T15:56:42.078Z,1.23
2022-09-20T15:59:11.684Z,0.90
2022-09-20T16:01:43.473Z,1.40
2022-09-20T16:04:17.401Z,1.67
2022-09-20T16:06:46.527Z,1.50
2022-09-20T16:09:14.187Z,1.40
2022-09-20T16:11:41.619Z,1.30
2022-09-20T16:14:08.557Z,1.40
2022-09-20T16:16:40.146Z,1.27
2022-09-20T16:19:26.266Z,1.27
2022-09-20T16:21:58.196Z,1.27
2022-09-20T16:24:34.719Z,1.52
2022-09-20T16:27:03.508Z,2.30
2022-09-20T16:29:31.356Z,1.60
2022-09-20T16:31:59.671Z,1.75
2022-09-20T16:34:35.163Z,1.70
2022-09-20T16:37:05.824Z,2.25
2022-09-20T16:39:33.452Z,1.80
2022-09-20T16:42:05.624Z,1.83
2022-09-20T16:44:35.365Z,1.65
2022-09-20T16:47:07.144Z,1.55
2022-09-20T16:49:35.022Z,2.00
2022-09-20T16:52:04.118Z,2.28
2022-09-20T16:54:32.073Z,1.83
2022-09-20T16:56:59.975Z,2.15
2022-09-20T16:59:26.987Z,2.60
2022-09-20T17:01:53.894Z,2.00
2022-09-20T17:04:21.263Z,1.90
2022-09-20T17:06:49.524Z,2.63
2022-09-20T17:09:19.371Z,2.10
2022-09-20T17:11:50.178Z,1.83
2022-09-20T17:14:19.245Z,2.08
2022-09-20T17:16:48.038Z,1.60
2022-09-20T17:19:20.109Z,2.20
2022-09-20T17:21:50.768Z,1.92
2022-09-20T17:24:20.233Z,2.03
2022-09-20T17:26:47.629Z,1.83
2022-09-20T17:29:17.063Z,2.90
2022-09-20T17:31:51.444Z,2.00
2022-09-20T17:34:22.035Z,2.47
2022-09-20T17:36:50.557Z,3.63
2022-09-20T17:39:18.081Z,4.30
2022-09-20T17:41:49.728Z,2.30
2022-09-20T17:44:17.309Z,2.28
2022-09-20T17:46:46.508Z,2.13
2022-09-20T17:49:18.420Z,1.50
2022-09-20T17:51:48.338Z,2.05
2022-09-20T17:54:15.698Z,2.17
2022-09-20T17:56:44.626Z,2.05
2022-09-20T17:59:12.776Z,1.70
2022-09-20T18:01:40.556Z,1.40
2022-09-20T18:04:08.839Z,1.50
2022-09-20T18:06:45.017Z,1.88
2022-09-20T18:09:20.408Z,1.02
2022-09-20T18:11:50.053Z,1.10
2022-09-20T18:14:19.058Z,1.23
2022-09-20T18:16:46.979Z,1.45
2022-09-20T18:19:16.220Z,1.23
2022-09-20T18:21:43.572Z,1.20
2022-09-20T18:24:11.722Z,1.00
2022-09-20T18:26:39.263Z,1.42
2022-09-20T18:29:14.260Z,1.60
2022-09-20T18:31:43.360Z,1.38
2022-09-20T18:34:15.528Z,1.10
2022-09-20T18:36:42.607Z,1.75
2022-09-20T18:39:09.508Z,1.23
2022-09-20T18:41:38.348Z,1.52
2022-09-20T18:44:07.670Z,1.20
2022-09-20T18:46:38.189Z,1.17
2022-09-20T18:49:08.377Z,1.02
2022-09-20T18:51:39.743Z,0.90
2022-09-20T18:54:10.092Z,1.33
2022-09-20T18:56:44.906Z,1.20
2022-09-20T18:59:24.200Z,1.23
2022-09-20T19:01:53.875Z,1.60
2022-09-20T19:04:54.198Z,1.45
2022-09-20T19:07:36.591Z,1.67
2022-09-20T19:10:06.543Z,1.20
2022-09-20T19:12:51.997Z,1.10
2022-09-20T19:15:41.044Z,1.20
2022-09-20T19:18:21.585Z,1.13
2022-09-20T19:21:02.633Z,1.02
2022-09-20T19:23:45.299Z,1.30
2022-09-20T19:26:19.024Z,1.30
2022-09-20T19:28:47.203Z,2.65
2022-09-20T19:31:23.934Z,1.92
2022-09-20T19:33:54.558Z,1.70
2022-09-20T19:36:23.393Z,2.50
2022-09-20T19:39:11.009Z,1.60
2022-09-20T19:41:58.105Z,2.28
2022-09-20T19:44:53.364Z,2.13
2022-09-20T19:47:39.263Z,1.58
2022-09-20T19:50:57.472Z,1.60
2022-09-20T19:53:28.201Z,1.63
2022-09-20T19:56:04.529Z,1.40
2022-09-20T20:06:32.545Z,0.80
2022-09-20T20:09:37.008Z,1.45
2022-09-20T20:12:44.893Z,1.35
2022-09-20T20:18:03.764Z,1.40
2022-09-20T20:20:36.666Z,1.30
2022-09-20T20:23:29.105Z,1.70
2022-09-20T20:26:16.916Z,1.63
2022-09-20T20:28:44.357Z,1.20
2022-09-20T20:31:12.402Z,1.50
2022-09-20T20:33:39.906Z,0.80
2022-09-20T20:36:11.851Z,1.17
2022-09-20T20:38:40.398Z,1.15
2022-09-20T20:41:13.183Z,1.20
2022-09-20T20:43:42.764Z,1.15
2022-09-20T20:46:12.204Z,1.10
2022-09-20T20:48:39.086Z,1.10
2022-09-20T20:51:11.663Z,0.90
2022-09-20T20:53:40.771Z,0.93
2022-09-20T20:56:34.350Z,0.95
2022-09-20T20:59:04.036Z,1.00
2022-09-20T21:01:31.876Z,0.90
2022-09-20T21:03:59.599Z,0.63
2022-09-20T21:06:29.698Z,1.02
2022-09-20T21:08:56.925Z,0.80
2022-09-20T21:11:28.484Z,0.90
2022-09-20T21:13:57.914Z,0.73
2022-09-20T21:16:27.075Z,0.90
2022-09-20T21:18:54.227Z,0.70
2022-09-20T21:21:33.364Z,0.50
2022-09-20T21:24:02.177Z,0.93
2022-09-20T21:26:33.667Z,1.00
2022-09-20T21:29:03.158Z,1.05
2022-09-20T21:31:32.502Z,1.17
2022-09-20T21:33:59.779Z,0.90
2022-09-20T21:36:29.091Z,0.43
2022-09-20T21:38:56.824Z,0.98
2022-09-20T21:41:29.391Z,1.10
2022-09-20T21:43:58.191Z,0.90
2022-09-20T21:46:28.381Z,0.80
2022-09-20T21:48:57.360Z,0.55
2022-09-20T21:51:25.659Z,0.80
2022-09-20T21:53:57.512Z,0.93
2022-09-20T21:56:29.038Z,1.20
2022-09-20T21:58:56.293Z,1.50
2022-09-20T22:01:26.002Z,1.80
2022-09-20T22:03:56.556Z,1.90
2022-09-20T22:06:26.051Z,2.20
2022-09-20T22:09:08.512Z,2.05
2022-09-20T22:11:40.915Z,2.15
2022-09-20T22:14:09.835Z,2.53
2022-09-20T22:16:42.086Z,2.20
2022-09-20T22:19:11.265Z,2.80
2022-09-20T22:21:40.910Z,2.45
2022-09-20T22:24:10.547Z,2.58
2022-09-20T22:26:40.230Z,2.20
2022-09-20T22:29:07.773Z,1.80
2022-09-20T22:31:37.151Z,1.80
2022-09-20T22:34:07.169Z,2.40
2022-09-20T22:36:36.533Z,2.55
2022-09-20T22:39:05.769Z,2.78
2022-09-20T22:41:33.029Z,3.00
2022-09-20T22:44:00.028Z,2.85
2022-09-20T22:46:29.156Z,2.40
2022-09-20T22:48:56.557Z,2.08
2022-09-20T22:51:29.072Z,2.13
2022-09-20T22:53:55.970Z,1.98
2022-09-20T22:56:25.736Z,1.77
2022-09-20T22:58:54.879Z,2.33
2022-09-20T23:01:24.331Z,2.45
2022-09-20T23:04:03.274Z,2.30
2022-09-20T23:06:36.035Z,1.70
2022-09-20T23:09:04.788Z,1.55
2022-09-20T23:11:31.805Z,1.42
2022-09-20T23:14:00.660Z,1.35
2022-09-20T23:16:33.416Z,1.98
2022-09-20T23:19:02.027Z,1.85
2022-09-20T23:21:29.904Z,2.83
2022-09-20T23:23:59.471Z,1.80
2022-09-20T23:26:27.752Z,1.60
2022-09-20T23:28:56.988Z,1.50
2022-09-20T23:31:25.013Z,1.60
2022-09-20T23:33:57.924Z,1.63
2022-09-20T23:36:26.760Z,1.50
2022-09-20T23:38:53.935Z,1.40
2022-09-20T23:41:23.820Z,0.93
2022-09-20T23:43:51.202Z,0.80
2022-09-20T23:46:19.735Z,1.70
2022-09-20T23:48:47.035Z,1.50
2022-09-20T23:51:16.643Z,1.60
2022-09-20T23:53:44.080Z,1.35
2022-09-20T23:56:12.147Z,0.90
2022-09-20T23:58:40.843Z,1.50
